Flight Track Log - Related Links

Times and Time Zones

All times are in EDT time to prevent confusion due to time zone crossing. See the CTL13 flight status page for this flight to view local times or setup timezone preferences in your user account.

Time Position Orientation Groundspeed Altitude Reporting Facility
EDT Latitude Longitude Course Direction KTS MPH feet Rate Location/Type
Mon 10:39:10 PM 41.8000 -87.7167 90° East 117 135 1,900  Level Chicago TRACON
Mon 10:40:10 PM 41.8000 -87.6667 90° East 122 140 3,000 1,100 Climbing Chicago TRACON
Mon 10:41:10 PM 41.8000 -87.6167 90° East 125 144 4,100 912 Climbing Chicago TRACON
Mon 10:42:15 PM 41.8006 -87.5803 89° East 125 144 4,900 425 Climbing Chicago Center
Mon 10:43:17 PM 41.8031 -87.5267 86° East 136 157 5,000 49 Climbing Chicago Center
Mon 10:44:18 PM 41.8075 -87.4531 85° East 155 178 5,000  Level Chicago Center
Mon 10:45:19 PM 41.8119 -87.3894 85° East 165 190 5,000  Level Chicago Center
Mon 10:46:20 PM 41.8150 -87.3267 86° East 168 193 5,000  Level Chicago Center
Mon 10:47:21 PM 41.8172 -87.2639 87° East 169 194 5,000  Level Chicago Center
Mon 10:48:22 PM 41.8208 -87.2014 86° East 169 194 5,000  Level Chicago Center
Mon 10:49:23 PM 41.8239 -87.1386 86° East 169 194 5,000  Level Chicago Center
Mon 10:50:25 PM 41.8508 -87.0917 52° Northeast 171 197 5,000  Level Chicago Center
Mon 10:51:26 PM 41.8833 -87.0433 48° Northeast 174 200 5,000 246 Level Chicago Center
Mon 10:52:27 PM 41.9144 -86.9989 47° Northeast 168 193 5,500 689 Climbing Chicago Center
Mon 10:53:28 PM 41.9461 -86.9511 48° Northeast 145 167 6,400 738 Climbing Chicago Center
Mon 10:54:29 PM 41.9722 -86.9100 49° Northeast 146 168 7,000 295 Climbing Chicago Center
Mon 10:55:30 PM 42.0022 -86.8681 46° Northeast 153 176 7,000  Level Chicago Center
Mon 10:56:31 PM 42.0314 -86.8217 50° Northeast 161 185 7,000 33 Level Chicago Center
Mon 10:58:33 PM 42.0908 -86.7336 48° Northeast 159 183 7,100  Climbing Chicago Center
Mon 10:59:34 PM 42.1194 -86.6894 49° Northeast 158 182 7,000  Descending Chicago Center
Mon 11:00:35 PM 42.1489 -86.6431 49° Northeast 161 185 7,100 49 Climbing Chicago Center
Mon 11:01:36 PM 42.1778 -86.6011 47° Northeast 155 178 7,100 -49 Level Chicago Center
Mon 11:02:37 PM 42.2081 -86.5556 48° Northeast 161 185 7,000  Descending Chicago Center
Mon 11:03:38 PM 42.2383 -86.5097 48° Northeast 163 188 7,100 49 Climbing Chicago Center
Mon 11:04:39 PM 42.2694 -86.4667 46° Northeast 161 185 7,100 -49 Level Chicago Center
Mon 11:05:40 PM 42.3025 -86.4158 49° Northeast 158 182 7,000 -49 Descending Chicago Center
Mon 11:06:41 PM 42.3328 -86.3703 48° Northeast 163 188 7,000  Level Chicago Center
Mon 11:07:42 PM 42.3631 -86.3275 46° Northeast 160 184 7,000  Level Chicago Center
Mon 11:08:43 PM 42.3931 -86.2847 46° Northeast 158 182 7,000  Level Chicago Center
Mon 11:09:44 PM 42.4233 -86.2425 46° Northeast 158 182 7,000 49 Level Chicago Center
Mon 11:10:45 PM 42.4556 -86.2022 43° Northeast 158 182 7,100  Climbing Chicago Center
Mon 11:11:46 PM 42.4875 -86.1622 43° Northeast 158 182 7,000 -49 Descending Chicago Center
Mon 11:12:47 PM 42.5172 -86.1186 47° Northeast 158 182 7,000  Level Chicago Center
Mon 11:13:48 PM 42.5481 -86.0764 45° Northeast 157 181 7,000  Level Chicago Center
Mon 11:14:49 PM 42.5803 -86.0336 44° Northeast 161 185 7,000 -246 Level Chicago Center
Mon 11:15:50 PM 42.6194 -85.9794 45° Northeast 167 192 6,500 -541 Descending Chicago Center
Mon 11:16:51 PM 42.6544 -85.9322 45° Northeast 174 200 5,900 -541 Descending Chicago Center
Mon 11:17:52 PM 42.6886 -85.8853 45° Northeast 175 201 5,400 -541 Descending Chicago Center
Mon 11:18:53 PM 42.7228 -85.8414 43° Northeast 172 198 4,800 -689 Descending Chicago Center
Mon 11:19:54 PM 42.7556 -85.7953 46° Northeast 171 197 4,000 -738 Descending Chicago Center
Mon 11:20:55 PM 42.7883 -85.7472 47° Northeast 173 199 3,300 -590 Descending Chicago Center
Mon 11:21:56 PM 42.8208 -85.7000 47° Northeast 172 198 2,800 -541 Descending Chicago Center
Mon 11:22:57 PM 42.8461 -85.6494 56° Northeast 168 193 2,200 -590 Descending Chicago Center
Mon 11:23:58 PM 42.8692 -85.6003 57° Northeast 161 185 1,600 -541 Descending Chicago Center
Mon 11:24:59 PM 42.8744 -85.5550 81° East 137 158 1,100 -492 Descending Chicago Center
Mon 11:26:00 PM 42.8667 -85.5167 56° Northeast  Level FlightAware Approximate
Mon 11:33:00 PM 42.8808 -85.5228 56° Northeast  Level Estimated
Mon 11:34:00 PM 42.8808 -85.5228 56° Northeast  Level Estimated

Login

Don't have an account? Register now (free) for customized features, flight alerts, and more!